sensor_id;sensor_type;location;lat;lon;timestamp;P1;durP1;ratioP1;P2;durP2;ratioP2
46931;SDS011;32670;51.464;11.964;2022-10-19T00:00:23;12.57;;;11.47;;
46931;SDS011;32670;51.464;11.964;2022-10-19T00:02:48;12.77;;;11.67;;
46931;SDS011;32670;51.464;11.964;2022-10-19T00:05:14;12.23;;;11.20;;
46931;SDS011;32670;51.464;11.964;2022-10-19T00:07:39;12.70;;;11.67;;
46931;SDS011;32670;51.464;11.964;2022-10-19T00:10:05;12.47;;;11.47;;
46931;SDS011;32670;51.464;11.964;2022-10-19T00:12:30;11.87;;;10.87;;
46931;SDS011;32670;51.464;11.964;2022-10-19T00:14:56;11.93;;;10.93;;
46931;SDS011;32670;51.464;11.964;2022-10-19T00:17:22;12.03;;;11.07;;
46931;SDS011;32670;51.464;11.964;2022-10-19T00:19:47;12.03;;;11.03;;
46931;SDS011;32670;51.464;11.964;2022-10-19T00:22:13;12.13;;;11.03;;
46931;SDS011;32670;51.464;11.964;2022-10-19T00:24:38;11.13;;;10.13;;
46931;SDS011;32670;51.464;11.964;2022-10-19T00:27:04;10.90;;;10.00;;
46931;SDS011;32670;51.464;11.964;2022-10-19T00:29:30;11.33;;;10.37;;
46931;SDS011;32670;51.464;11.964;2022-10-19T00:31:56;11.50;;;10.43;;
46931;SDS011;32670;51.464;11.964;2022-10-19T00:34:21;11.03;;;10.13;;
46931;SDS011;32670;51.464;11.964;2022-10-19T00:36:47;10.73;;;9.83;;
46931;SDS011;32670;51.464;11.964;2022-10-19T00:39:13;10.60;;;9.70;;
46931;SDS011;32670;51.464;11.964;2022-10-19T00:41:41;10.07;;;9.27;;
46931;SDS011;32670;51.464;11.964;2022-10-19T00:46:37;9.80;;;9.10;;
46931;SDS011;32670;51.464;11.964;2022-10-19T00:51:35;10.10;;;9.30;;
46931;SDS011;32670;51.464;11.964;2022-10-19T00:54:03;10.07;;;9.27;;
46931;SDS011;32670;51.464;11.964;2022-10-19T00:56:30;10.10;;;9.23;;
46931;SDS011;32670;51.464;11.964;2022-10-19T00:58:57;10.50;;;9.60;;
46931;SDS011;32670;51.464;11.964;2022-10-19T01:01:22;9.67;;;8.87;;
46931;SDS011;32670;51.464;11.964;2022-10-19T01:03:50;10.03;;;9.23;;
46931;SDS011;32670;51.464;11.964;2022-10-19T01:06:16;9.10;;;8.40;;
46931;SDS011;32670;51.464;11.964;2022-10-19T01:08:43;9.43;;;8.63;;
46931;SDS011;32670;51.464;11.964;2022-10-19T01:11:13;9.13;;;8.40;;
46931;SDS011;32670;51.464;11.964;2022-10-19T01:16:52;8.73;;;8.03;;
46931;SDS011;32670;51.464;11.964;2022-10-19T01:27:32;9.50;;;8.70;;
46931;SDS011;32670;51.464;11.964;2022-10-19T01:33:05;8.27;;;7.57;;
46931;SDS011;32670;51.464;11.964;2022-10-19T01:38:36;8.37;;;7.67;;
46931;SDS011;32670;51.464;11.964;2022-10-19T01:41:17;8.50;;;7.80;;
46931;SDS011;32670;51.464;11.964;2022-10-19T01:44:06;8.50;;;7.80;;
46931;SDS011;32670;51.464;11.964;2022-10-19T01:46:46;7.87;;;7.27;;
46931;SDS011;32670;51.464;11.964;2022-10-19T01:49:18;8.53;;;7.87;;
46931;SDS011;32670;51.464;11.964;2022-10-19T01:52:03;7.67;;;7.07;;
46931;SDS011;32670;51.464;11.964;2022-10-19T01:54:31;7.93;;;7.33;;
46931;SDS011;32670;51.464;11.964;2022-10-19T01:57:01;7.53;;;6.97;;
46931;SDS011;32670;51.464;11.964;2022-10-19T01:59:31;8.03;;;7.43;;
46931;SDS011;32670;51.464;11.964;2022-10-19T02:01:57;7.47;;;6.87;;
46931;SDS011;32670;51.464;11.964;2022-10-19T02:04:24;7.20;;;6.60;;
46931;SDS011;32670;51.464;11.964;2022-10-19T02:06:51;7.50;;;6.90;;
46931;SDS011;32670;51.464;11.964;2022-10-19T02:09:17;7.00;;;6.50;;
46931;SDS011;32670;51.464;11.964;2022-10-19T02:11:48;7.30;;;6.70;;
46931;SDS011;32670;51.464;11.964;2022-10-19T02:14:18;8.00;;;6.50;;
46931;SDS011;32670;51.464;11.964;2022-10-19T02:16:50;7.47;;;6.87;;
46931;SDS011;32670;51.464;11.964;2022-10-19T02:19:21;7.00;;;6.50;;
46931;SDS011;32670;51.464;11.964;2022-10-19T02:21:46;7.87;;;7.17;;
46931;SDS011;32670;51.464;11.964;2022-10-19T02:24:12;7.03;;;6.43;;
46931;SDS011;32670;51.464;11.964;2022-10-19T02:26:38;7.13;;;6.60;;
46931;SDS011;32670;51.464;11.964;2022-10-19T02:29:04;6.30;;;5.80;;
46931;SDS011;32670;51.464;11.964;2022-10-19T02:31:30;6.80;;;6.30;;
46931;SDS011;32670;51.464;11.964;2022-10-19T02:33:56;6.30;;;5.80;;
46931;SDS011;32670;51.464;11.964;2022-10-19T02:36:21;6.50;;;6.00;;
46931;SDS011;32670;51.464;11.964;2022-10-19T02:38:47;6.83;;;6.27;;
46931;SDS011;32670;51.464;11.964;2022-10-19T02:41:15;6.33;;;5.83;;
46931;SDS011;32670;51.464;11.964;2022-10-19T02:43:47;5.93;;;5.50;;
46931;SDS011;32670;51.464;11.964;2022-10-19T02:46:17;6.43;;;5.83;;
46931;SDS011;32670;51.464;11.964;2022-10-19T02:48:49;6.27;;;5.77;;
46931;SDS011;32670;51.464;11.964;2022-10-19T02:51:35;6.00;;;5.50;;
46931;SDS011;32670;51.464;11.964;2022-10-19T02:54:10;5.77;;;5.27;;
46931;SDS011;32670;51.464;11.964;2022-10-19T02:56:36;6.10;;;5.60;;
46931;SDS011;32670;51.464;11.964;2022-10-19T02:59:02;6.37;;;5.87;;
46931;SDS011;32670;51.464;11.964;2022-10-19T03:01:28;5.40;;;5.00;;
46931;SDS011;32670;51.464;11.964;2022-10-19T03:03:54;5.60;;;5.20;;
46931;SDS011;32670;51.464;11.964;2022-10-19T03:06:19;5.60;;;5.10;;
46931;SDS011;32670;51.464;11.964;2022-10-19T03:08:45;5.80;;;5.30;;
46931;SDS011;32670;51.464;11.964;2022-10-19T03:11:10;5.80;;;5.30;;
46931;SDS011;32670;51.464;11.964;2022-10-19T03:13:36;5.57;;;5.17;;
46931;SDS011;32670;51.464;11.964;2022-10-19T03:16:05;5.47;;;5.07;;
46931;SDS011;32670;51.464;11.964;2022-10-19T03:18:31;4.87;;;4.47;;
46931;SDS011;32670;51.464;11.964;2022-10-19T03:21:04;5.30;;;4.90;;
46931;SDS011;32670;51.464;11.964;2022-10-19T03:23:31;5.40;;;4.90;;
46931;SDS011;32670;51.464;11.964;2022-10-19T03:25:57;5.37;;;4.97;;
46931;SDS011;32670;51.464;11.964;2022-10-19T03:28:22;5.30;;;4.90;;
46931;SDS011;32670;51.464;11.964;2022-10-19T03:30:48;5.50;;;5.10;;
46931;SDS011;32670;51.464;11.964;2022-10-19T03:33:13;5.20;;;4.80;;
46931;SDS011;32670;51.464;11.964;2022-10-19T03:35:39;4.77;;;4.37;;
46931;SDS011;32670;51.464;11.964;2022-10-19T03:38:04;5.03;;;4.63;;
46931;SDS011;32670;51.464;11.964;2022-10-19T03:40:30;5.07;;;4.67;;
46931;SDS011;32670;51.464;11.964;2022-10-19T03:42:55;4.67;;;4.37;;
46931;SDS011;32670;51.464;11.964;2022-10-19T03:45:21;5.13;;;4.73;;
46931;SDS011;32670;51.464;11.964;2022-10-19T03:47:48;4.93;;;4.60;;
46931;SDS011;32670;51.464;11.964;2022-10-19T03:50:14;4.80;;;4.40;;
46931;SDS011;32670;51.464;11.964;2022-10-19T03:52:41;4.90;;;4.50;;
46931;SDS011;32670;51.464;11.964;2022-10-19T03:55:07;4.77;;;4.40;;
46931;SDS011;32670;51.464;11.964;2022-10-19T03:57:32;4.53;;;4.23;;
46931;SDS011;32670;51.464;11.964;2022-10-19T03:59:58;4.80;;;4.47;;
46931;SDS011;32670;51.464;11.964;2022-10-19T04:02:23;5.40;;;4.90;;
46931;SDS011;32670;51.464;11.964;2022-10-19T04:04:49;4.83;;;4.43;;
46931;SDS011;32670;51.464;11.964;2022-10-19T04:07:14;5.13;;;4.73;;
46931;SDS011;32670;51.464;11.964;2022-10-19T04:09:40;4.27;;;3.97;;
46931;SDS011;32670;51.464;11.964;2022-10-19T04:12:05;4.87;;;4.47;;
46931;SDS011;32670;51.464;11.964;2022-10-19T04:14:31;4.20;;;3.90;;
46931;SDS011;32670;51.464;11.964;2022-10-19T04:16:56;4.27;;;3.93;;
46931;SDS011;32670;51.464;11.964;2022-10-19T04:19:22;4.10;;;3.80;;
46931;SDS011;32670;51.464;11.964;2022-10-19T04:21:48;4.33;;;3.93;;
46931;SDS011;32670;51.464;11.964;2022-10-19T04:24:14;4.73;;;4.33;;
46931;SDS011;32670;51.464;11.964;2022-10-19T04:26:42;4.47;;;4.17;;
46931;SDS011;32670;51.464;11.964;2022-10-19T04:29:09;4.57;;;4.17;;
46931;SDS011;32670;51.464;11.964;2022-10-19T04:31:35;4.43;;;4.03;;
46931;SDS011;32670;51.464;11.964;2022-10-19T04:34:01;4.10;;;3.80;;
46931;SDS011;32670;51.464;11.964;2022-10-19T04:36:27;4.20;;;3.90;;
46931;SDS011;32670;51.464;11.964;2022-10-19T04:38:52;4.10;;;3.80;;
46931;SDS011;32670;51.464;11.964;2022-10-19T04:41:18;4.20;;;3.90;;
46931;SDS011;32670;51.464;11.964;2022-10-19T04:43:45;8.83;;;4.07;;
46931;SDS011;32670;51.464;11.964;2022-10-19T04:46:13;3.97;;;3.67;;
46931;SDS011;32670;51.464;11.964;2022-10-19T04:48:40;4.20;;;3.80;;
46931;SDS011;32670;51.464;11.964;2022-10-19T04:51:07;3.83;;;3.53;;
46931;SDS011;32670;51.464;11.964;2022-10-19T04:53:33;3.63;;;3.33;;
46931;SDS011;32670;51.464;11.964;2022-10-19T04:56:05;7.13;;;4.60;;
46931;SDS011;32670;51.464;11.964;2022-10-19T04:58:32;7.47;;;5.20;;
46931;SDS011;32670;51.464;11.964;2022-10-19T05:00:58;6.93;;;4.67;;
46931;SDS011;32670;51.464;11.964;2022-10-19T05:03:23;7.23;;;4.50;;
46931;SDS011;32670;51.464;11.964;2022-10-19T05:05:49;8.97;;;4.40;;
46931;SDS011;32670;51.464;11.964;2022-10-19T05:08:14;9.67;;;3.57;;
46931;SDS011;32670;51.464;11.964;2022-10-19T05:10:40;5.73;;;3.33;;
46931;SDS011;32670;51.464;11.964;2022-10-19T05:13:05;5.53;;;3.20;;
46931;SDS011;32670;51.464;11.964;2022-10-19T05:15:31;6.57;;;3.53;;
46931;SDS011;32670;51.464;11.964;2022-10-19T05:17:57;6.30;;;3.13;;
46931;SDS011;32670;51.464;11.964;2022-10-19T05:20:23;5.23;;;2.83;;
46931;SDS011;32670;51.464;11.964;2022-10-19T05:22:48;5.13;;;3.27;;
46931;SDS011;32670;51.464;11.964;2022-10-19T05:25:14;4.60;;;3.00;;
46931;SDS011;32670;51.464;11.964;2022-10-19T05:27:40;6.87;;;3.33;;
46931;SDS011;32670;51.464;11.964;2022-10-19T05:30:06;5.57;;;3.43;;
46931;SDS011;32670;51.464;11.964;2022-10-19T05:32:32;4.87;;;2.83;;
46931;SDS011;32670;51.464;11.964;2022-10-19T05:34:58;7.43;;;3.20;;
46931;SDS011;32670;51.464;11.964;2022-10-19T05:37:24;7.93;;;3.57;;
46931;SDS011;32670;51.464;11.964;2022-10-19T05:39:49;6.93;;;3.07;;
46931;SDS011;32670;51.464;11.964;2022-10-19T05:42:15;5.93;;;3.60;;
46931;SDS011;32670;51.464;11.964;2022-10-19T05:44:41;5.87;;;3.70;;
46931;SDS011;32670;51.464;11.964;2022-10-19T05:47:06;6.97;;;4.00;;
46931;SDS011;32670;51.464;11.964;2022-10-19T05:49:32;7.23;;;3.87;;
46931;SDS011;32670;51.464;11.964;2022-10-19T05:51:57;8.43;;;4.63;;
46931;SDS011;32670;51.464;11.964;2022-10-19T05:54:23;7.30;;;4.03;;
46931;SDS011;32670;51.464;11.964;2022-10-19T05:56:48;8.90;;;4.50;;
46931;SDS011;32670;51.464;11.964;2022-10-19T05:59:15;7.57;;;4.10;;
46931;SDS011;32670;51.464;11.964;2022-10-19T06:01:43;10.13;;;4.53;;
46931;SDS011;32670;51.464;11.964;2022-10-19T06:04:09;8.43;;;4.40;;
46931;SDS011;32670;51.464;11.964;2022-10-19T06:06:37;9.03;;;4.67;;
46931;SDS011;32670;51.464;11.964;2022-10-19T06:09:03;7.97;;;4.40;;
46931;SDS011;32670;51.464;11.964;2022-10-19T06:11:29;9.97;;;4.27;;
46931;SDS011;32670;51.464;11.964;2022-10-19T06:14:00;8.57;;;4.40;;
46931;SDS011;32670;51.464;11.964;2022-10-19T06:16:28;7.60;;;4.27;;
46931;SDS011;32670;51.464;11.964;2022-10-19T06:18:55;7.97;;;4.53;;
46931;SDS011;32670;51.464;11.964;2022-10-19T06:21:22;6.67;;;4.10;;
46931;SDS011;32670;51.464;11.964;2022-10-19T06:23:49;10.57;;;4.80;;
46931;SDS011;32670;51.464;11.964;2022-10-19T06:26:22;7.03;;;4.20;;
46931;SDS011;32670;51.464;11.964;2022-10-19T06:28:49;7.60;;;3.90;;
46931;SDS011;32670;51.464;11.964;2022-10-19T06:31:15;9.80;;;4.50;;
46931;SDS011;32670;51.464;11.964;2022-10-19T06:33:41;7.13;;;3.97;;
46931;SDS011;32670;51.464;11.964;2022-10-19T06:36:08;7.97;;;4.20;;
46931;SDS011;32670;51.464;11.964;2022-10-19T06:38:38;7.17;;;4.20;;
46931;SDS011;32670;51.464;11.964;2022-10-19T06:41:04;6.40;;;3.73;;
46931;SDS011;32670;51.464;11.964;2022-10-19T06:43:30;4.63;;;3.60;;
46931;SDS011;32670;51.464;11.964;2022-10-19T06:45:56;6.10;;;3.60;;
46931;SDS011;32670;51.464;11.964;2022-10-19T06:48:22;7.17;;;3.60;;
46931;SDS011;32670;51.464;11.964;2022-10-19T06:50:58;6.73;;;3.73;;
46931;SDS011;32670;51.464;11.964;2022-10-19T06:53:24;6.30;;;3.40;;
46931;SDS011;32670;51.464;11.964;2022-10-19T06:55:51;5.00;;;3.27;;
46931;SDS011;32670;51.464;11.964;2022-10-19T06:58:17;6.17;;;3.70;;
46931;SDS011;32670;51.464;11.964;2022-10-19T07:00:42;7.77;;;3.40;;
46931;SDS011;32670;51.464;11.964;2022-10-19T07:03:08;7.37;;;3.67;;
46931;SDS011;32670;51.464;11.964;2022-10-19T07:05:33;6.77;;;3.43;;
46931;SDS011;32670;51.464;11.964;2022-10-19T07:07:59;6.47;;;3.30;;
46931;SDS011;32670;51.464;11.964;2022-10-19T07:10:24;5.10;;;3.50;;
46931;SDS011;32670;51.464;11.964;2022-10-19T07:12:49;5.50;;;3.30;;
46931;SDS011;32670;51.464;11.964;2022-10-19T07:15:15;7.50;;;3.00;;
46931;SDS011;32670;51.464;11.964;2022-10-19T07:17:41;5.90;;;3.07;;
46931;SDS011;32670;51.464;11.964;2022-10-19T07:20:06;5.90;;;3.57;;
46931;SDS011;32670;51.464;11.964;2022-10-19T07:22:32;4.63;;;3.00;;
46931;SDS011;32670;51.464;11.964;2022-10-19T07:24:58;6.47;;;3.47;;
46931;SDS011;32670;51.464;11.964;2022-10-19T07:27:23;9.73;;;3.33;;
46931;SDS011;32670;51.464;11.964;2022-10-19T07:29:49;6.60;;;3.60;;
46931;SDS011;32670;51.464;11.964;2022-10-19T07:32:14;6.63;;;3.10;;
46931;SDS011;32670;51.464;11.964;2022-10-19T07:34:40;4.73;;;3.03;;
46931;SDS011;32670;51.464;11.964;2022-10-19T07:37:05;6.17;;;2.90;;
46931;SDS011;32670;51.464;11.964;2022-10-19T07:39:31;6.33;;;3.03;;
46931;SDS011;32670;51.464;11.964;2022-10-19T07:41:56;5.53;;;3.13;;
46931;SDS011;32670;51.464;11.964;2022-10-19T07:44:22;4.37;;;2.80;;
46931;SDS011;32670;51.464;11.964;2022-10-19T07:46:47;4.97;;;3.57;;
46931;SDS011;32670;51.464;11.964;2022-10-19T07:49:14;9.47;;;3.63;;
46931;SDS011;32670;51.464;11.964;2022-10-19T07:51:40;8.77;;;5.70;;
46931;SDS011;32670;51.464;11.964;2022-10-19T07:54:06;8.10;;;5.53;;
46931;SDS011;32670;51.464;11.964;2022-10-19T07:56:32;7.30;;;4.50;;
46931;SDS011;32670;51.464;11.964;2022-10-19T07:58:58;4.83;;;4.00;;
46931;SDS011;32670;51.464;11.964;2022-10-19T08:01:25;6.90;;;4.90;;
46931;SDS011;32670;51.464;11.964;2022-10-19T08:03:56;7.33;;;5.47;;
46931;SDS011;32670;51.464;11.964;2022-10-19T08:06:23;7.23;;;5.97;;
46931;SDS011;32670;51.464;11.964;2022-10-19T08:08:51;7.03;;;6.23;;
46931;SDS011;32670;51.464;11.964;2022-10-19T08:11:19;9.20;;;8.23;;
46931;SDS011;32670;51.464;11.964;2022-10-19T08:13:49;10.00;;;7.57;;
46931;SDS011;32670;51.464;11.964;2022-10-19T08:16:26;8.17;;;7.37;;
46931;SDS011;32670;51.464;11.964;2022-10-19T08:19:04;10.73;;;7.60;;
46931;SDS011;32670;51.464;11.964;2022-10-19T08:21:32;12.57;;;9.13;;
46931;SDS011;32670;51.464;11.964;2022-10-19T08:23:58;11.03;;;9.00;;
46931;SDS011;32670;51.464;11.964;2022-10-19T08:26:24;11.57;;;9.03;;
46931;SDS011;32670;51.464;11.964;2022-10-19T08:28:57;10.37;;;8.27;;
46931;SDS011;32670;51.464;11.964;2022-10-19T08:31:26;10.23;;;8.60;;
46931;SDS011;32670;51.464;11.964;2022-10-19T08:33:52;10.57;;;8.60;;
46931;SDS011;32670;51.464;11.964;2022-10-19T08:36:17;9.33;;;8.33;;
46931;SDS011;32670;51.464;11.964;2022-10-19T08:38:44;11.47;;;10.30;;
46931;SDS011;32670;51.464;11.964;2022-10-19T08:47:10;13.40;;;10.67;;
46931;SDS011;32670;51.464;11.964;2022-10-19T08:49:57;11.20;;;10.10;;
46931;SDS011;32670;51.464;11.964;2022-10-19T08:52:25;12.40;;;10.40;;
46931;SDS011;32670;51.464;11.964;2022-10-19T08:54:55;13.60;;;11.67;;
46931;SDS011;32670;51.464;11.964;2022-10-19T08:57:33;15.07;;;12.47;;
46931;SDS011;32670;51.464;11.964;2022-10-19T09:03:02;12.80;;;11.60;;
46931;SDS011;32670;51.464;11.964;2022-10-19T09:05:50;16.03;;;14.33;;
46931;SDS011;32670;51.464;11.964;2022-10-19T09:08:23;19.40;;;17.40;;
46931;SDS011;32670;51.464;11.964;2022-10-19T09:10:49;14.63;;;12.70;;
46931;SDS011;32670;51.464;11.964;2022-10-19T09:15:43;12.30;;;10.93;;
46931;SDS011;32670;51.464;11.964;2022-10-19T09:18:13;10.57;;;9.47;;
46931;SDS011;32670;51.464;11.964;2022-10-19T09:21:03;8.87;;;7.93;;
46931;SDS011;32670;51.464;11.964;2022-10-19T09:23:38;11.23;;;10.13;;
46931;SDS011;32670;51.464;11.964;2022-10-19T09:26:27;10.50;;;9.27;;
46931;SDS011;32670;51.464;11.964;2022-10-19T09:28:57;10.33;;;9.20;;
46931;SDS011;32670;51.464;11.964;2022-10-19T09:31:30;11.43;;;10.23;;
46931;SDS011;32670;51.464;11.964;2022-10-19T09:33:59;11.73;;;10.53;;
46931;SDS011;32670;51.464;11.964;2022-10-19T09:36:30;11.97;;;10.77;;
46931;SDS011;32670;51.464;11.964;2022-10-19T09:39:01;12.30;;;11.03;;
46931;SDS011;32670;51.464;11.964;2022-10-19T09:41:27;14.47;;;12.97;;
46931;SDS011;32670;51.464;11.964;2022-10-19T09:43:54;15.50;;;14.03;;
46931;SDS011;32670;51.464;11.964;2022-10-19T09:46:38;16.23;;;14.60;;
46931;SDS011;32670;51.464;11.964;2022-10-19T09:49:15;16.03;;;14.43;;
46931;SDS011;32670;51.464;11.964;2022-10-19T09:51:46;16.57;;;14.97;;
46931;SDS011;32670;51.464;11.964;2022-10-19T09:54:22;17.07;;;15.27;;
46931;SDS011;32670;51.464;11.964;2022-10-19T09:56:57;17.33;;;15.63;;
46931;SDS011;32670;51.464;11.964;2022-10-19T09:59:23;17.73;;;15.93;;
46931;SDS011;32670;51.464;11.964;2022-10-19T10:01:59;17.37;;;15.63;;
46931;SDS011;32670;51.464;11.964;2022-10-19T10:04:30;19.87;;;18.07;;
46931;SDS011;32670;51.464;11.964;2022-10-19T10:06:55;16.50;;;15.00;;
46931;SDS011;32670;51.464;11.964;2022-10-19T10:09:23;19.20;;;17.40;;
46931;SDS011;32670;51.464;11.964;2022-10-19T10:11:52;19.43;;;17.53;;
46931;SDS011;32670;51.464;11.964;2022-10-19T10:14:22;18.60;;;16.80;;
46931;SDS011;32670;51.464;11.964;2022-10-19T10:17:00;19.33;;;17.43;;
46931;SDS011;32670;51.464;11.964;2022-10-19T10:19:29;19.40;;;17.43;;
46931;SDS011;32670;51.464;11.964;2022-10-19T10:21:57;19.73;;;17.87;;
46931;SDS011;32670;51.464;11.964;2022-10-19T10:24:24;20.03;;;18.03;;
46931;SDS011;32670;51.464;11.964;2022-10-19T10:26:53;19.93;;;18.07;;
46931;SDS011;32670;51.464;11.964;2022-10-19T10:32:32;20.07;;;18.23;;
46931;SDS011;32670;51.464;11.964;2022-10-19T10:34:54;18.97;;;17.17;;
46931;SDS011;32670;51.464;11.964;2022-10-19T10:37:27;19.57;;;17.67;;
46931;SDS011;32670;51.464;11.964;2022-10-19T10:39:54;20.07;;;18.13;;
46931;SDS011;32670;51.464;11.964;2022-10-19T10:42:25;21.37;;;19.17;;
46931;SDS011;32670;51.464;11.964;2022-10-19T10:45:22;21.27;;;19.07;;
46931;SDS011;32670;51.464;11.964;2022-10-19T10:47:50;19.77;;;17.90;;
46931;SDS011;32670;51.464;11.964;2022-10-19T10:50:25;21.00;;;19.10;;
46931;SDS011;32670;51.464;11.964;2022-10-19T10:53:03;20.93;;;19.07;;
46931;SDS011;32670;51.464;11.964;2022-10-19T10:55:31;21.43;;;19.43;;
46931;SDS011;32670;51.464;11.964;2022-10-19T10:58:17;23.37;;;21.07;;
46931;SDS011;32670;51.464;11.964;2022-10-19T11:01:12;23.67;;;21.47;;
46931;SDS011;32670;51.464;11.964;2022-10-19T11:03:44;22.80;;;20.60;;
46931;SDS011;32670;51.464;11.964;2022-10-19T11:06:21;23.90;;;21.50;;
46931;SDS011;32670;51.464;11.964;2022-10-19T11:11:48;24.43;;;22.10;;
46931;SDS011;32670;51.464;11.964;2022-10-19T11:17:03;24.17;;;21.87;;
46931;SDS011;32670;51.464;11.964;2022-10-19T11:22:04;25.43;;;23.03;;
46931;SDS011;32670;51.464;11.964;2022-10-19T11:25:01;26.17;;;23.60;;
46931;SDS011;32670;51.464;11.964;2022-10-19T11:30:37;26.33;;;23.77;;
46931;SDS011;32670;51.464;11.964;2022-10-19T11:33:19;26.03;;;23.50;;
46931;SDS011;32670;51.464;11.964;2022-10-19T11:35:57;26.50;;;24.03;;
46931;SDS011;32670;51.464;11.964;2022-10-19T11:38:46;27.40;;;24.77;;
46931;SDS011;32670;51.464;11.964;2022-10-19T11:44:20;29.93;;;26.93;;
46931;SDS011;32670;51.464;11.964;2022-10-19T11:47:21;27.80;;;25.10;;
46931;SDS011;32670;51.464;11.964;2022-10-19T11:50:16;26.47;;;23.87;;
46931;SDS011;32670;51.464;11.964;2022-10-19T11:56:07;26.67;;;24.07;;
46931;SDS011;32670;51.464;11.964;2022-10-19T11:58:36;28.60;;;25.80;;
46931;SDS011;32670;51.464;11.964;2022-10-19T12:01:24;27.00;;;24.50;;
46931;SDS011;32670;51.464;11.964;2022-10-19T12:04:10;27.63;;;25.17;;
46931;SDS011;32670;51.464;11.964;2022-10-19T12:07:13;28.17;;;25.47;;
46931;SDS011;32670;51.464;11.964;2022-10-19T12:12:23;29.77;;;26.87;;
46931;SDS011;32670;51.464;11.964;2022-10-19T12:17:56;30.47;;;27.67;;
46931;SDS011;32670;51.464;11.964;2022-10-19T12:22:57;33.00;;;29.80;;
46931;SDS011;32670;51.464;11.964;2022-10-19T12:25:23;31.77;;;28.77;;
46931;SDS011;32670;51.464;11.964;2022-10-19T12:27:50;34.10;;;30.77;;
46931;SDS011;32670;51.464;11.964;2022-10-19T12:30:20;32.53;;;29.43;;
46931;SDS011;32670;51.464;11.964;2022-10-19T12:35:26;33.07;;;29.87;;
46931;SDS011;32670;51.464;11.964;2022-10-19T12:38:18;32.90;;;29.70;;
46931;SDS011;32670;51.464;11.964;2022-10-19T12:40:57;32.87;;;29.67;;
46931;SDS011;32670;51.464;11.964;2022-10-19T12:46:22;35.37;;;31.87;;
46931;SDS011;32670;51.464;11.964;2022-10-19T12:51:49;33.83;;;30.63;;
46931;SDS011;32670;51.464;11.964;2022-10-19T12:54:15;30.47;;;27.67;;
46931;SDS011;32670;51.464;11.964;2022-10-19T12:56:48;29.23;;;26.40;;
46931;SDS011;32670;51.464;11.964;2022-10-19T12:59:21;30.50;;;27.50;;
46931;SDS011;32670;51.464;11.964;2022-10-19T13:01:48;27.47;;;24.73;;
46931;SDS011;32670;51.464;11.964;2022-10-19T13:06:47;29.57;;;26.37;;
46931;SDS011;32670;51.464;11.964;2022-10-19T13:14:48;28.03;;;25.33;;
46931;SDS011;32670;51.464;11.964;2022-10-19T13:17:36;27.93;;;25.03;;
46931;SDS011;32670;51.464;11.964;2022-10-19T13:28:00;28.07;;;25.17;;
46931;SDS011;32670;51.464;11.964;2022-10-19T13:38:23;27.93;;;24.73;;
46931;SDS011;32670;51.464;11.964;2022-10-19T13:43:20;28.60;;;25.33;;
46931;SDS011;32670;51.464;11.964;2022-10-19T13:48:37;27.63;;;24.93;;
46931;SDS011;32670;51.464;11.964;2022-10-19T13:51:25;29.50;;;26.30;;
46931;SDS011;32670;51.464;11.964;2022-10-19T13:54:18;28.33;;;25.47;;
46931;SDS011;32670;51.464;11.964;2022-10-19T13:57:15;28.27;;;25.37;;
46931;SDS011;32670;51.464;11.964;2022-10-19T14:00:02;28.63;;;25.63;;
46931;SDS011;32670;51.464;11.964;2022-10-19T14:02:39;28.23;;;25.30;;
46931;SDS011;32670;51.464;11.964;2022-10-19T14:10:46;30.57;;;27.23;;
46931;SDS011;32670;51.464;11.964;2022-10-19T14:13:16;30.63;;;27.53;;
46931;SDS011;32670;51.464;11.964;2022-10-19T14:18:50;30.77;;;27.67;;
46931;SDS011;32670;51.464;11.964;2022-10-19T14:21:31;29.77;;;26.77;;
46931;SDS011;32670;51.464;11.964;2022-10-19T14:23:58;29.07;;;26.17;;
46931;SDS011;32670;51.464;11.964;2022-10-19T14:26:24;29.57;;;26.47;;
46931;SDS011;32670;51.464;11.964;2022-10-19T14:28:56;30.50;;;27.37;;
46931;SDS011;32670;51.464;11.964;2022-10-19T14:31:24;29.10;;;26.20;;
46931;SDS011;32670;51.464;11.964;2022-10-19T14:34:00;31.10;;;28.00;;
46931;SDS011;32670;51.464;11.964;2022-10-19T14:36:32;29.83;;;26.73;;
46931;SDS011;32670;51.464;11.964;2022-10-19T14:39:00;31.17;;;27.97;;
46931;SDS011;32670;51.464;11.964;2022-10-19T14:43:53;30.90;;;27.80;;
46931;SDS011;32670;51.464;11.964;2022-10-19T14:46:19;28.97;;;26.07;;
46931;SDS011;32670;51.464;11.964;2022-10-19T14:48:45;28.37;;;25.27;;
46931;SDS011;32670;51.464;11.964;2022-10-19T14:53:48;29.93;;;26.73;;
46931;SDS011;32670;51.464;11.964;2022-10-19T14:56:22;31.37;;;27.97;;
46931;SDS011;32670;51.464;11.964;2022-10-19T14:58:56;30.17;;;26.73;;
46931;SDS011;32670;51.464;11.964;2022-10-19T15:01:25;30.83;;;27.63;;
46931;SDS011;32670;51.464;11.964;2022-10-19T15:03:51;30.00;;;26.97;;
46931;SDS011;32670;51.464;11.964;2022-10-19T15:06:22;30.30;;;27.03;;
46931;SDS011;32670;51.464;11.964;2022-10-19T15:08:51;29.97;;;26.97;;
46931;SDS011;32670;51.464;11.964;2022-10-19T15:11:24;29.97;;;26.97;;
46931;SDS011;32670;51.464;11.964;2022-10-19T15:13:57;28.80;;;26.10;;
46931;SDS011;32670;51.464;11.964;2022-10-19T15:19:14;29.43;;;26.60;;
46931;SDS011;32670;51.464;11.964;2022-10-19T15:21:42;29.37;;;26.50;;
46931;SDS011;32670;51.464;11.964;2022-10-19T15:24:25;31.97;;;28.67;;
46931;SDS011;32670;51.464;11.964;2022-10-19T15:26:52;31.50;;;28.40;;
46931;SDS011;32670;51.464;11.964;2022-10-19T15:29:20;32.20;;;28.53;;
46931;SDS011;32670;51.464;11.964;2022-10-19T15:31:47;30.23;;;27.33;;
46931;SDS011;32670;51.464;11.964;2022-10-19T15:34:28;33.50;;;30.20;;
46931;SDS011;32670;51.464;11.964;2022-10-19T15:36:56;33.13;;;28.73;;
46931;SDS011;32670;51.464;11.964;2022-10-19T15:39:25;31.50;;;28.40;;
46931;SDS011;32670;51.464;11.964;2022-10-19T15:41:55;32.00;;;28.97;;
46931;SDS011;32670;51.464;11.964;2022-10-19T15:44:31;31.83;;;28.73;;
46931;SDS011;32670;51.464;11.964;2022-10-19T15:52:13;31.60;;;28.50;;
46931;SDS011;32670;51.464;11.964;2022-10-19T15:54:40;32.17;;;28.97;;
46931;SDS011;32670;51.464;11.964;2022-10-19T15:57:20;31.97;;;28.77;;
46931;SDS011;32670;51.464;11.964;2022-10-19T16:00:04;31.93;;;28.63;;
46931;SDS011;32670;51.464;11.964;2022-10-19T16:02:35;30.53;;;27.53;;
46931;SDS011;32670;51.464;11.964;2022-10-19T16:05:00;30.30;;;27.23;;
46931;SDS011;32670;51.464;11.964;2022-10-19T16:07:26;30.97;;;28.07;;
46931;SDS011;32670;51.464;11.964;2022-10-19T16:09:55;33.30;;;30.00;;
46931;SDS011;32670;51.464;11.964;2022-10-19T16:12:21;34.40;;;30.90;;
46931;SDS011;32670;51.464;11.964;2022-10-19T16:14:47;31.37;;;28.37;;
46931;SDS011;32670;51.464;11.964;2022-10-19T16:17:13;32.33;;;29.27;;
46931;SDS011;32670;51.464;11.964;2022-10-19T16:19:39;32.43;;;29.13;;
46931;SDS011;32670;51.464;11.964;2022-10-19T16:22:06;32.53;;;29.23;;
46931;SDS011;32670;51.464;11.964;2022-10-19T16:24:32;35.33;;;31.83;;
46931;SDS011;32670;51.464;11.964;2022-10-19T16:26:57;34.13;;;30.80;;
46931;SDS011;32670;51.464;11.964;2022-10-19T16:29:23;35.90;;;32.20;;
46931;SDS011;32670;51.464;11.964;2022-10-19T16:31:48;35.23;;;31.67;;
46931;SDS011;32670;51.464;11.964;2022-10-19T16:34:15;35.23;;;31.83;;
46931;SDS011;32670;51.464;11.964;2022-10-19T16:36:40;35.20;;;31.57;;